sensor_id;sensor_type;location;lat;lon;timestamp;pressure;altitude;pressure_sealevel;temperature;humidity
45323;BME280;31382;50.200;8.674;2023-03-01T00:02:16;101524.97;;;2.75;52.13
45323;BME280;31382;50.200;8.674;2023-03-01T00:07:17;101523.84;;;2.80;51.70
45323;BME280;31382;50.200;8.674;2023-03-01T00:12:19;101522.78;;;2.82;52.00
45323;BME280;31382;50.200;8.674;2023-03-01T00:17:20;101531.88;;;2.78;52.31
45323;BME280;31382;50.200;8.674;2023-03-01T00:22:22;101529.06;;;2.81;51.89
45323;BME280;31382;50.200;8.674;2023-03-01T00:27:24;101522.50;;;2.72;51.73
45323;BME280;31382;50.200;8.674;2023-03-01T00:32:25;101514.53;;;2.72;52.50
45323;BME280;31382;50.200;8.674;2023-03-01T00:37:27;101510.84;;;2.75;52.35
45323;BME280;31382;50.200;8.674;2023-03-01T00:42:28;101511.13;;;2.70;52.80
45323;BME280;31382;50.200;8.674;2023-03-01T00:47:30;101503.84;;;2.60;52.73
45323;BME280;31382;50.200;8.674;2023-03-01T00:52:31;101502.78;;;2.62;53.21
45323;BME280;31382;50.200;8.674;2023-03-01T00:57:32;101495.13;;;2.57;53.42
45323;BME280;31382;50.200;8.674;2023-03-01T01:02:35;101487.47;;;2.53;53.11
45323;BME280;31382;50.200;8.674;2023-03-01T01:07:36;101484.69;;;2.54;52.89
45323;BME280;31382;50.200;8.674;2023-03-01T01:12:38;101487.25;;;2.56;52.81
45323;BME280;31382;50.200;8.674;2023-03-01T01:17:40;101470.28;;;2.58;52.76
45323;BME280;31382;50.200;8.674;2023-03-01T01:22:41;101468.03;;;2.67;52.75
45323;BME280;31382;50.200;8.674;2023-03-01T01:27:43;101454.63;;;2.68;52.62
45323;BME280;31382;50.200;8.674;2023-03-01T01:32:44;101442.31;;;2.67;52.78
45323;BME280;31382;50.200;8.674;2023-03-01T01:37:46;101437.84;;;2.68;53.56
45323;BME280;31382;50.200;8.674;2023-03-01T01:42:47;101442.41;;;2.66;53.66
45323;BME280;31382;50.200;8.674;2023-03-01T01:47:50;101438.59;;;2.70;52.94
45323;BME280;31382;50.200;8.674;2023-03-01T01:52:53;101434.91;;;2.72;52.96
45323;BME280;31382;50.200;8.674;2023-03-01T01:57:58;101445.91;;;2.81;53.41
45323;BME280;31382;50.200;8.674;2023-03-01T02:03:04;101445.69;;;2.84;53.37
45323;BME280;31382;50.200;8.674;2023-03-01T02:08:07;101450.28;;;2.67;53.25
45323;BME280;31382;50.200;8.674;2023-03-01T02:13:10;101446.22;;;2.62;53.79
45323;BME280;31382;50.200;8.674;2023-03-01T02:18:14;101451.53;;;2.62;53.68
45323;BME280;31382;50.200;8.674;2023-03-01T02:23:18;101433.88;;;2.61;53.66
45323;BME280;31382;50.200;8.674;2023-03-01T02:28:25;101426.03;;;2.59;53.66
45323;BME280;31382;50.200;8.674;2023-03-01T02:33:27;101424.41;;;2.56;53.30
45323;BME280;31382;50.200;8.674;2023-03-01T02:38:28;101414.00;;;2.53;53.97
45323;BME280;31382;50.200;8.674;2023-03-01T02:43:32;101414.94;;;2.52;53.85
45323;BME280;31382;50.200;8.674;2023-03-01T02:48:51;101401.66;;;2.52;53.93
45323;BME280;31382;50.200;8.674;2023-03-01T02:54:21;101387.47;;;2.53;54.03
45323;BME280;31382;50.200;8.674;2023-03-01T02:59:28;101396.56;;;2.49;53.83
45323;BME280;31382;50.200;8.674;2023-03-01T03:04:31;101399.41;;;2.46;54.13
45323;BME280;31382;50.200;8.674;2023-03-01T03:09:33;101388.63;;;2.49;54.05
45323;BME280;31382;50.200;8.674;2023-03-01T03:14:34;101387.50;;;2.39;54.17
45323;BME280;31382;50.200;8.674;2023-03-01T03:19:36;101369.78;;;2.40;54.14
45323;BME280;31382;50.200;8.674;2023-03-01T03:24:37;101370.16;;;2.33;54.56
45323;BME280;31382;50.200;8.674;2023-03-01T03:29:39;101365.03;;;2.30;54.31
45323;BME280;31382;50.200;8.674;2023-03-01T03:34:40;101358.97;;;2.28;54.49
45323;BME280;31382;50.200;8.674;2023-03-01T03:39:41;101353.75;;;2.27;53.70
45323;BME280;31382;50.200;8.674;2023-03-01T03:44:43;101352.63;;;2.31;54.62
45323;BME280;31382;50.200;8.674;2023-03-01T03:49:44;101353.69;;;2.28;53.94
45323;BME280;31382;50.200;8.674;2023-03-01T03:54:45;101348.47;;;2.27;54.14
45323;BME280;31382;50.200;8.674;2023-03-01T03:59:47;101346.59;;;2.14;54.69
45323;BME280;31382;50.200;8.674;2023-03-01T04:04:48;101345.09;;;2.10;54.15
45323;BME280;31382;50.200;8.674;2023-03-01T04:09:53;101348.31;;;2.01;55.12
45323;BME280;31382;50.200;8.674;2023-03-01T04:14:54;101353.06;;;1.96;54.55
45323;BME280;31382;50.200;8.674;2023-03-01T04:19:55;101347.75;;;1.96;54.57
45323;BME280;31382;50.200;8.674;2023-03-01T04:24:57;101361.41;;;1.90;54.89
45323;BME280;31382;50.200;8.674;2023-03-01T04:29:59;101354.28;;;1.90;55.31
45323;BME280;31382;50.200;8.674;2023-03-01T04:35:01;101355.34;;;1.88;54.62
45323;BME280;31382;50.200;8.674;2023-03-01T04:40:04;101334.97;;;1.88;55.37
45323;BME280;31382;50.200;8.674;2023-03-01T04:45:17;101338.47;;;1.89;54.67
45323;BME280;31382;50.200;8.674;2023-03-01T04:50:19;101335.06;;;1.87;55.11
45323;BME280;31382;50.200;8.674;2023-03-01T04:55:21;101330.91;;;1.83;54.71
45323;BME280;31382;50.200;8.674;2023-03-01T05:00:23;101330.72;;;1.86;54.90
45323;BME280;31382;50.200;8.674;2023-03-01T05:05:36;101343.59;;;1.92;55.17
45323;BME280;31382;50.200;8.674;2023-03-01T05:10:37;101338.09;;;1.95;55.12
45323;BME280;31382;50.200;8.674;2023-03-01T05:15:39;101328.22;;;1.97;55.17
45323;BME280;31382;50.200;8.674;2023-03-01T05:20:41;101333.16;;;2.03;54.77
45323;BME280;31382;50.200;8.674;2023-03-01T05:25:43;101333.16;;;2.03;55.38
45323;BME280;31382;50.200;8.674;2023-03-01T05:30:44;101335.91;;;2.02;54.92
45323;BME280;31382;50.200;8.674;2023-03-01T05:35:46;101337.06;;;1.97;55.28
45323;BME280;31382;50.200;8.674;2023-03-01T05:40:49;101339.22;;;1.91;55.74
45323;BME280;31382;50.200;8.674;2023-03-01T05:45:51;101327.38;;;1.96;55.13
45323;BME280;31382;50.200;8.674;2023-03-01T05:50:52;101325.78;;;1.94;55.33
45323;BME280;31382;50.200;8.674;2023-03-01T05:55:54;101326.81;;;1.91;55.37
45323;BME280;31382;50.200;8.674;2023-03-01T06:00:55;101331.75;;;1.83;55.66
45323;BME280;31382;50.200;8.674;2023-03-01T06:05:57;101326.19;;;1.88;55.21
45323;BME280;31382;50.200;8.674;2023-03-01T06:10:59;101328.31;;;1.95;54.67
45323;BME280;31382;50.200;8.674;2023-03-01T06:16:03;101329.19;;;1.96;55.55
45323;BME280;31382;50.200;8.674;2023-03-01T06:21:06;101333.06;;;2.05;55.13
45323;BME280;31382;50.200;8.674;2023-03-01T06:26:08;101335.13;;;2.14;55.38
45323;BME280;31382;50.200;8.674;2023-03-01T06:31:09;101319.78;;;2.05;55.23
45323;BME280;31382;50.200;8.674;2023-03-01T06:36:11;101317.34;;;2.02;55.91
45323;BME280;31382;50.200;8.674;2023-03-01T06:41:12;101316.97;;;2.08;55.71
45323;BME280;31382;50.200;8.674;2023-03-01T06:46:14;101315.22;;;2.21;55.62
45323;BME280;31382;50.200;8.674;2023-03-01T06:51:15;101303.66;;;2.22;55.18
45323;BME280;31382;50.200;8.674;2023-03-01T06:56:17;101305.34;;;2.37;55.41
45323;BME280;31382;50.200;8.674;2023-03-01T07:01:18;101293.06;;;2.49;55.33
45323;BME280;31382;50.200;8.674;2023-03-01T07:06:20;101293.31;;;2.59;55.34
45323;BME280;31382;50.200;8.674;2023-03-01T07:11:22;101307.19;;;2.77;54.32
45323;BME280;31382;50.200;8.674;2023-03-01T07:16:24;101315.06;;;2.91;54.79
45323;BME280;31382;50.200;8.674;2023-03-01T07:21:25;101311.25;;;2.95;54.87
45323;BME280;31382;50.200;8.674;2023-03-01T07:26:27;101315.25;;;2.88;54.92
45323;BME280;31382;50.200;8.674;2023-03-01T07:31:28;101300.41;;;2.86;54.42
45323;BME280;31382;50.200;8.674;2023-03-01T07:36:30;101301.78;;;2.78;54.83
45323;BME280;31382;50.200;8.674;2023-03-01T07:41:32;101303.03;;;2.73;55.09
45323;BME280;31382;50.200;8.674;2023-03-01T07:46:33;101306.44;;;2.75;54.82
45323;BME280;31382;50.200;8.674;2023-03-01T07:51:34;101296.00;;;2.72;55.18
45323;BME280;31382;50.200;8.674;2023-03-01T07:56:36;101311.75;;;2.75;54.78
45323;BME280;31382;50.200;8.674;2023-03-01T08:01:37;101308.03;;;2.77;55.02
45323;BME280;31382;50.200;8.674;2023-03-01T08:06:39;101304.88;;;2.85;54.63
45323;BME280;31382;50.200;8.674;2023-03-01T08:11:40;101302.53;;;2.93;55.22
45323;BME280;31382;50.200;8.674;2023-03-01T08:16:42;101309.69;;;3.06;55.30
45323;BME280;31382;50.200;8.674;2023-03-01T08:21:43;101300.78;;;3.07;54.77
45323;BME280;31382;50.200;8.674;2023-03-01T08:26:45;101297.28;;;3.19;54.45
45323;BME280;31382;50.200;8.674;2023-03-01T08:31:47;101279.09;;;3.26;54.89
45323;BME280;31382;50.200;8.674;2023-03-01T08:36:49;101277.19;;;3.41;54.28
45323;BME280;31382;50.200;8.674;2023-03-01T08:41:52;101279.53;;;3.45;55.11
45323;BME280;31382;50.200;8.674;2023-03-01T08:46:54;101277.38;;;3.63;54.14
45323;BME280;31382;50.200;8.674;2023-03-01T08:51:56;101266.09;;;3.85;53.92
45323;BME280;31382;50.200;8.674;2023-03-01T08:57:01;101251.75;;;4.12;53.94
45323;BME280;31382;50.200;8.674;2023-03-01T09:02:04;101249.66;;;4.28;53.68
45323;BME280;31382;50.200;8.674;2023-03-01T09:07:06;101244.56;;;4.49;53.40
45323;BME280;31382;50.200;8.674;2023-03-01T09:12:08;101244.03;;;4.68;53.05
45323;BME280;31382;50.200;8.674;2023-03-01T09:17:09;101232.91;;;4.74;52.75
45323;BME280;31382;50.200;8.674;2023-03-01T09:22:11;101229.31;;;4.87;52.24
45323;BME280;31382;50.200;8.674;2023-03-01T09:27:13;101225.22;;;5.05;51.76
45323;BME280;31382;50.200;8.674;2023-03-01T09:32:15;101224.75;;;5.11;51.69
45323;BME280;31382;50.200;8.674;2023-03-01T09:37:17;101211.94;;;5.16;51.39
45323;BME280;31382;50.200;8.674;2023-03-01T09:42:18;101208.91;;;5.32;50.77
45323;BME280;31382;50.200;8.674;2023-03-01T09:47:26;101211.81;;;5.52;50.12
45323;BME280;31382;50.200;8.674;2023-03-01T09:57:51;101203.31;;;5.69;49.96
45323;BME280;31382;50.200;8.674;2023-03-01T10:08:54;101183.75;;;5.91;49.47
45323;BME280;31382;50.200;8.674;2023-03-01T10:14:09;101183.16;;;5.99;48.64
45323;BME280;31382;50.200;8.674;2023-03-01T10:19:40;101187.38;;;6.13;49.35
45323;BME280;31382;50.200;8.674;2023-03-01T10:24:42;101180.38;;;6.33;49.09
45323;BME280;31382;50.200;8.674;2023-03-01T10:30:36;101171.31;;;6.45;48.42
45323;BME280;31382;50.200;8.674;2023-03-01T10:35:28;101185.59;;;6.55;48.56
45323;BME280;31382;50.200;8.674;2023-03-01T10:40:31;101161.78;;;6.64;47.48
45323;BME280;31382;50.200;8.674;2023-03-01T10:45:35;101166.78;;;6.78;47.33
45323;BME280;31382;50.200;8.674;2023-03-01T10:50:37;101155.03;;;6.90;46.90
45323;BME280;31382;50.200;8.674;2023-03-01T10:55:43;101141.19;;;7.06;47.28
45323;BME280;31382;50.200;8.674;2023-03-01T11:00:56;101132.53;;;7.24;47.08
45323;BME280;31382;50.200;8.674;2023-03-01T11:11:17;101106.00;;;7.42;46.39
45323;BME280;31382;50.200;8.674;2023-03-01T11:16:24;101099.50;;;7.44;45.64
45323;BME280;31382;50.200;8.674;2023-03-01T11:21:28;101079.16;;;7.63;45.58
45323;BME280;31382;50.200;8.674;2023-03-01T11:26:34;101083.66;;;7.72;45.50
45323;BME280;31382;50.200;8.674;2023-03-01T11:31:39;101073.66;;;7.84;45.57
45323;BME280;31382;50.200;8.674;2023-03-01T11:37:03;101067.19;;;7.96;45.42
45323;BME280;31382;50.200;8.674;2023-03-01T11:42:18;101072.00;;;8.12;44.76
45323;BME280;31382;50.200;8.674;2023-03-01T11:58:42;101037.25;;;8.59;43.12
45323;BME280;31382;50.200;8.674;2023-03-01T12:19:43;101006.38;;;9.56;40.83
45323;BME280;31382;50.200;8.674;2023-03-01T12:36:02;100979.59;;;10.08;38.94
45323;BME280;31382;50.200;8.674;2023-03-01T12:47:18;100948.94;;;10.45;38.31
45323;BME280;31382;50.200;8.674;2023-03-01T12:57:41;100943.41;;;10.89;37.68
45323;BME280;31382;50.200;8.674;2023-03-01T13:08:54;100930.31;;;10.86;37.49
45323;BME280;31382;50.200;8.674;2023-03-01T13:13:34;100920.06;;;10.90;37.08
45323;BME280;31382;50.200;8.674;2023-03-01T13:18:36;100921.28;;;11.04;37.25
45323;BME280;31382;50.200;8.674;2023-03-01T13:23:38;100915.91;;;11.37;36.82
45323;BME280;31382;50.200;8.674;2023-03-01T13:28:53;100913.06;;;11.46;36.12
45323;BME280;31382;50.200;8.674;2023-03-01T13:34:01;100906.16;;;11.77;35.92
45323;BME280;31382;50.200;8.674;2023-03-01T13:39:28;100892.53;;;11.62;35.04
45323;BME280;31382;50.200;8.674;2023-03-01T13:44:34;100881.75;;;11.70;35.08
45323;BME280;31382;50.200;8.674;2023-03-01T13:49:52;100878.91;;;11.63;34.82
45323;BME280;31382;50.200;8.674;2023-03-01T13:54:56;100859.38;;;11.69;34.72
45323;BME280;31382;50.200;8.674;2023-03-01T13:59:57;100867.09;;;11.73;34.81
45323;BME280;31382;50.200;8.674;2023-03-01T14:05:00;100855.34;;;11.74;34.31
45323;BME280;31382;50.200;8.674;2023-03-01T14:10:04;100849.22;;;11.88;34.50
45323;BME280;31382;50.200;8.674;2023-03-01T14:15:38;100855.97;;;12.08;34.07
45323;BME280;31382;50.200;8.674;2023-03-01T14:20:44;100862.72;;;11.96;34.15
45323;BME280;31382;50.200;8.674;2023-03-01T14:25:55;100864.53;;;12.04;33.80
45323;BME280;31382;50.200;8.674;2023-03-01T14:30:58;100856.59;;;12.19;34.24
45323;BME280;31382;50.200;8.674;2023-03-01T14:36:06;100859.75;;;12.30;33.55
45323;BME280;31382;50.200;8.674;2023-03-01T14:41:18;100856.78;;;12.09;34.44
45323;BME280;31382;50.200;8.674;2023-03-01T14:46:27;100855.97;;;12.08;34.18
45323;BME280;31382;50.200;8.674;2023-03-01T14:51:36;100849.34;;;12.19;33.81
45323;BME280;31382;50.200;8.674;2023-03-01T14:56:44;100843.28;;;12.17;33.71
45323;BME280;31382;50.200;8.674;2023-03-01T15:01:46;100835.06;;;12.02;33.76
45323;BME280;31382;50.200;8.674;2023-03-01T15:06:55;100826.41;;;12.23;33.60
45323;BME280;31382;50.200;8.674;2023-03-01T15:12:44;100826.97;;;12.73;33.19
45323;BME280;31382;50.200;8.674;2023-03-01T15:17:51;100818.75;;;13.59;31.77
45323;BME280;31382;50.200;8.674;2023-03-01T15:22:54;100819.91;;;12.95;32.40
45323;BME280;31382;50.200;8.674;2023-03-01T15:27:57;100821.38;;;12.52;32.97
45323;BME280;31382;50.200;8.674;2023-03-01T15:38:36;100832.91;;;12.37;32.57
45323;BME280;31382;50.200;8.674;2023-03-01T15:43:46;100843.66;;;12.06;32.99
45323;BME280;31382;50.200;8.674;2023-03-01T15:48:49;100842.25;;;12.26;32.90
45323;BME280;31382;50.200;8.674;2023-03-01T15:53:53;100847.19;;;12.06;32.58
45323;BME280;31382;50.200;8.674;2023-03-01T15:58:59;100846.88;;;11.77;33.15
45323;BME280;31382;50.200;8.674;2023-03-01T16:04:01;100855.34;;;11.49;33.98
45323;BME280;31382;50.200;8.674;2023-03-01T16:09:02;100858.88;;;11.25;33.93
45323;BME280;31382;50.200;8.674;2023-03-01T16:14:04;100862.09;;;11.04;34.32
45323;BME280;31382;50.200;8.674;2023-03-01T16:19:05;100857.34;;;10.89;34.20
45323;BME280;31382;50.200;8.674;2023-03-01T16:24:07;100872.28;;;10.76;34.36
45323;BME280;31382;50.200;8.674;2023-03-01T16:29:08;100864.97;;;10.43;34.95
45323;BME280;31382;50.200;8.674;2023-03-01T16:34:10;100872.56;;;10.22;34.95
45323;BME280;31382;50.200;8.674;2023-03-01T16:39:11;100867.38;;;9.94;35.35
45323;BME280;31382;50.200;8.674;2023-03-01T16:44:14;100866.53;;;9.67;35.47
45323;BME280;31382;50.200;8.674;2023-03-01T16:49:16;100866.97;;;9.37;35.88
45323;BME280;31382;50.200;8.674;2023-03-01T16:54:17;100867.78;;;9.11;36.55
45323;BME280;31382;50.200;8.674;2023-03-01T16:59:19;100880.91;;;8.86;36.79
45323;BME280;31382;50.200;8.674;2023-03-01T17:04:20;100890.09;;;8.66;36.51
45323;BME280;31382;50.200;8.674;2023-03-01T17:09:22;100891.19;;;8.45;36.86
45323;BME280;31382;50.200;8.674;2023-03-01T17:14:24;100873.34;;;8.26;36.92
45323;BME280;31382;50.200;8.674;2023-03-01T17:19:25;100886.66;;;8.08;37.38
45323;BME280;31382;50.200;8.674;2023-03-01T17:24:27;100889.97;;;7.92;37.69
45323;BME280;31382;50.200;8.674;2023-03-01T17:29:28;100898.28;;;7.80;38.30
45323;BME280;31382;50.200;8.674;2023-03-01T17:34:31;100893.53;;;7.73;38.14
45323;BME280;31382;50.200;8.674;2023-03-01T17:39:33;100901.75;;;7.52;38.16
45323;BME280;31382;50.200;8.674;2023-03-01T17:44:37;100905.53;;;7.40;38.79
45323;BME280;31382;50.200;8.674;2023-03-01T17:49:39;100904.28;;;7.25;39.44
45323;BME280;31382;50.200;8.674;2023-03-01T17:54:40;100905.69;;;7.19;38.82
45323;BME280;31382;50.200;8.674;2023-03-01T17:59:42;100907.78;;;7.06;39.89
45323;BME280;31382;50.200;8.674;2023-03-01T18:04:43;100929.16;;;6.96;38.89
45323;BME280;31382;50.200;8.674;2023-03-01T18:09:44;100925.88;;;6.83;39.29
45323;BME280;31382;50.200;8.674;2023-03-01T18:14:46;100928.25;;;6.66;39.87
45323;BME280;31382;50.200;8.674;2023-03-01T18:19:53;100925.78;;;6.53;39.86
45323;BME280;31382;50.200;8.674;2023-03-01T18:24:57;100922.97;;;6.45;40.53
45323;BME280;31382;50.200;8.674;2023-03-01T18:29:58;100903.56;;;6.43;40.15
45323;BME280;31382;50.200;8.674;2023-03-01T18:34:59;100915.81;;;6.46;40.12
45323;BME280;31382;50.200;8.674;2023-03-01T18:40:01;100899.22;;;6.42;40.68
45323;BME280;31382;50.200;8.674;2023-03-01T18:45:03;100889.47;;;6.31;40.89
45323;BME280;31382;50.200;8.674;2023-03-01T18:50:05;100878.91;;;6.30;41.26
45323;BME280;31382;50.200;8.674;2023-03-01T18:55:06;100882.28;;;6.22;40.81
45323;BME280;31382;50.200;8.674;2023-03-01T19:00:08;100882.28;;;6.22;41.18
45323;BME280;31382;50.200;8.674;2023-03-01T19:05:10;100885.78;;;6.23;40.92
45323;BME280;31382;50.200;8.674;2023-03-01T19:10:12;100887.88;;;6.19;41.01
45323;BME280;31382;50.200;8.674;2023-03-01T19:15:13;100883.09;;;6.13;41.59
45323;BME280;31382;50.200;8.674;2023-03-01T19:20:16;100891.09;;;6.13;42.21
45323;BME280;31382;50.200;8.674;2023-03-01T19:25:17;100898.25;;;6.12;41.70
45323;BME280;31382;50.200;8.674;2023-03-01T19:30:19;100914.09;;;6.04;42.01
45323;BME280;31382;50.200;8.674;2023-03-01T19:35:20;100907.59;;;5.97;42.17
45323;BME280;31382;50.200;8.674;2023-03-01T19:40:23;100911.59;;;5.91;42.96
45323;BME280;31382;50.200;8.674;2023-03-01T19:45:24;100909.34;;;5.87;43.07
45323;BME280;31382;50.200;8.674;2023-03-01T19:50:34;100914.19;;;5.82;43.36
45323;BME280;31382;50.200;8.674;2023-03-01T19:55:36;100936.38;;;5.82;42.84
45323;BME280;31382;50.200;8.674;2023-03-01T20:00:39;100914.47;;;5.79;43.58
45323;BME280;31382;50.200;8.674;2023-03-01T20:05:40;100918.22;;;5.76;43.74
45323;BME280;31382;50.200;8.674;2023-03-01T20:10:43;100917.81;;;5.71;43.79
45323;BME280;31382;50.200;8.674;2023-03-01T20:15:45;100913.00;;;5.65;43.63
45323;BME280;31382;50.200;8.674;2023-03-01T20:20:48;100910.09;;;5.56;44.21
45323;BME280;31382;50.200;8.674;2023-03-01T20:25:50;100923.00;;;5.51;44.44
45323;BME280;31382;50.200;8.674;2023-03-01T20:30:52;100927.72;;;5.48;44.41
45323;BME280;31382;50.200;8.674;2023-03-01T20:35:53;100934.53;;;5.41;44.42
45323;BME280;31382;50.200;8.674;2023-03-01T20:40:59;100931.44;;;5.35;44.79
45323;BME280;31382;50.200;8.674;2023-03-01T20:46:05;100934.59;;;5.29;44.76
45323;BME280;31382;50.200;8.674;2023-03-01T20:51:08;100935.44;;;5.30;44.71
45323;BME280;31382;50.200;8.674;2023-03-01T20:56:11;100942.97;;;5.25;44.74
45323;BME280;31382;50.200;8.674;2023-03-01T21:01:16;100941.09;;;5.15;45.26
45323;BME280;31382;50.200;8.674;2023-03-01T21:06:18;100936.88;;;5.02;45.66
45323;BME280;31382;50.200;8.674;2023-03-01T21:11:20;100930.47;;;4.93;45.61
45323;BME280;31382;50.200;8.674;2023-03-01T21:16:25;100922.28;;;4.73;46.02
45323;BME280;31382;50.200;8.674;2023-03-01T21:21:27;100926.75;;;4.73;46.12
45323;BME280;31382;50.200;8.674;2023-03-01T21:26:28;100922.16;;;4.64;46.30
45323;BME280;31382;50.200;8.674;2023-03-01T21:31:33;100918.81;;;4.50;46.20
45323;BME280;31382;50.200;8.674;2023-03-01T21:36:35;100920.75;;;4.48;46.65
45323;BME280;31382;50.200;8.674;2023-03-01T21:41:37;100915.06;;;4.53;47.06
45323;BME280;31382;50.200;8.674;2023-03-01T21:46:38;100912.03;;;4.57;46.55
45323;BME280;31382;50.200;8.674;2023-03-01T21:51:40;100908.84;;;4.64;46.47
45323;BME280;31382;50.200;8.674;2023-03-01T21:56:43;100912.00;;;4.69;46.47
45323;BME280;31382;50.200;8.674;2023-03-01T22:01:45;100911.63;;;4.73;46.20
45323;BME280;31382;50.200;8.674;2023-03-01T22:06:46;100902.91;;;4.71;46.37
45323;BME280;31382;50.200;8.674;2023-03-01T22:11:50;100903.06;;;4.59;46.60
45323;BME280;31382;50.200;8.674;2023-03-01T22:16:53;100901.13;;;4.61;46.41
45323;BME280;31382;50.200;8.674;2023-03-01T22:21:55;100911.28;;;4.67;46.57
45323;BME280;31382;50.200;8.674;2023-03-01T22:26:56;100903.31;;;4.67;46.47
45323;BME280;31382;50.200;8.674;2023-03-01T22:31:57;100903.41;;;4.65;46.41
45323;BME280;31382;50.200;8.674;2023-03-01T22:36:59;100895.81;;;4.61;46.63
45323;BME280;31382;50.200;8.674;2023-03-01T22:42:00;100886.22;;;4.58;46.66
45323;BME280;31382;50.200;8.674;2023-03-01T22:47:02;100883.44;;;4.60;46.54
45323;BME280;31382;50.200;8.674;2023-03-01T22:52:03;100890.22;;;4.64;46.41
45323;BME280;31382;50.200;8.674;2023-03-01T22:57:05;100890.81;;;4.67;46.32
45323;BME280;31382;50.200;8.674;2023-03-01T23:02:06;100886.34;;;4.68;46.25
45323;BME280;31382;50.200;8.674;2023-03-01T23:07:08;100884.44;;;4.59;46.87
45323;BME280;31382;50.200;8.674;2023-03-01T23:12:09;100882.00;;;4.55;46.79
45323;BME280;31382;50.200;8.674;2023-03-01T23:17:11;100878.50;;;4.55;46.65
45323;BME280;31382;50.200;8.674;2023-03-01T23:22:13;100880.34;;;4.54;46.75
45323;BME280;31382;50.200;8.674;2023-03-01T23:27:14;100867.59;;;4.58;46.77
45323;BME280;31382;50.200;8.674;2023-03-01T23:32:18;100864.38;;;4.54;46.89
45323;BME280;31382;50.200;8.674;2023-03-01T23:37:20;100860.00;;;4.53;46.98
45323;BME280;31382;50.200;8.674;2023-03-01T23:42:21;100865.31;;;4.53;46.86
45323;BME280;31382;50.200;8.674;2023-03-01T23:47:23;100860.50;;;4.47;47.31
45323;BME280;31382;50.200;8.674;2023-03-01T23:52:24;100864.97;;;4.47;47.35
45323;BME280;31382;50.200;8.674;2023-03-01T23:57:25;100860.38;;;4.37;47.24
